createdAt,value
2023-02-15T00:02:03.848Z,102126.78
2023-02-15T00:04:45.584Z,102130.19
2023-02-15T00:07:15.547Z,102123.13
2023-02-15T00:09:44.129Z,102122.22
2023-02-15T00:12:12.283Z,102112.59
2023-02-15T00:14:40.060Z,102111.59
2023-02-15T00:17:07.767Z,102118.19
2023-02-15T00:19:35.745Z,102108.41
2023-02-15T00:22:03.548Z,102111.47
2023-02-15T00:24:32.709Z,102104.47
2023-02-15T00:27:00.540Z,102105.38
2023-02-15T00:29:29.083Z,102096.66
2023-02-15T00:31:56.794Z,102091.28
2023-02-15T00:34:28.007Z,102097.44
2023-02-15T00:36:56.179Z,102093.03
2023-02-15T00:39:24.804Z,102085.84
2023-02-15T00:41:53.995Z,102089.31
2023-02-15T00:44:21.758Z,102092.69
2023-02-15T00:46:49.559Z,102083.88
2023-02-15T00:49:17.291Z,102091.03
2023-02-15T00:51:45.087Z,102089.16
2023-02-15T00:54:12.878Z,102091.81
2023-02-15T00:56:40.630Z,102087.31
2023-02-15T00:59:10.534Z,102084.59
2023-02-15T01:01:38.472Z,102079.44
2023-02-15T01:04:06.624Z,102076.06
2023-02-15T01:06:34.364Z,102081.38
2023-02-15T01:09:02.136Z,102077.78
2023-02-15T01:11:29.930Z,102079.59
2023-02-15T01:13:59.300Z,102076.16
2023-02-15T01:16:30.284Z,102070.81
2023-02-15T01:18:58.685Z,102069.13
2023-02-15T01:21:27.927Z,102074.34
2023-02-15T01:23:55.636Z,102073.38
2023-02-15T01:26:23.594Z,102072.41
2023-02-15T01:28:51.283Z,102070.63
2023-02-15T01:31:22.187Z,102067.84
2023-02-15T01:33:51.843Z,102076.53
2023-02-15T01:36:19.707Z,102078.94
2023-02-15T01:38:47.712Z,102070.94
2023-02-15T01:41:25.013Z,102068.53
2023-02-15T01:43:55.303Z,102070.38
2023-02-15T01:46:29.731Z,102073.97
2023-02-15T01:49:04.294Z,102071.19
2023-02-15T01:51:35.714Z,102059.75
2023-02-15T01:54:07.584Z,102068.47
2023-02-15T01:56:38.200Z,102063.22
2023-02-15T01:59:10.377Z,102057.25
2023-02-15T02:01:39.616Z,102054.72
2023-02-15T02:04:15.497Z,102052.88
2023-02-15T02:06:43.573Z,102049.34
2023-02-15T02:09:11.696Z,102044.09
2023-02-15T02:11:41.293Z,102051.00
2023-02-15T02:14:09.969Z,102050.16
2023-02-15T02:16:49.076Z,102042.94
2023-02-15T02:20:05.995Z,102046.53
2023-02-15T02:23:06.299Z,102035.03
2023-02-15T02:26:07.366Z,102042.09
2023-02-15T02:29:00.170Z,102044.78
2023-02-15T02:31:50.612Z,102040.28
2023-02-15T02:34:27.644Z,102031.41
2023-02-15T02:37:01.638Z,102029.59
2023-02-15T02:39:39.843Z,102028.63
2023-02-15T02:42:14.055Z,102032.91
2023-02-15T02:44:45.512Z,102026.66
2023-02-15T02:47:19.187Z,102024.16
2023-02-15T02:49:48.434Z,102029.34
2023-02-15T02:52:41.588Z,102019.34
2023-02-15T02:55:13.551Z,102019.34
2023-02-15T02:57:49.248Z,102016.44
2023-02-15T03:00:19.550Z,102016.69
2023-02-15T03:02:52.638Z,102013.28
2023-02-15T03:05:26.168Z,102006.34
2023-02-15T03:07:55.848Z,102009.94
2023-02-15T03:10:25.821Z,102010.78
2023-02-15T03:12:54.367Z,102009.94
2023-02-15T03:15:25.209Z,102007.31
2023-02-15T03:17:58.348Z,101993.25
2023-02-15T03:20:31.546Z,101999.34
2023-02-15T03:23:03.711Z,101996.38
2023-02-15T03:25:36.194Z,101995.28
2023-02-15T03:28:07.229Z,101999.88
2023-02-15T03:30:37.194Z,101997.34
2023-02-15T03:33:07.427Z,101991.31
2023-02-15T03:35:46.020Z,101989.69
2023-02-15T03:38:19.409Z,101991.44
2023-02-15T03:41:06.762Z,101982.44
2023-02-15T03:43:44.715Z,101986.00
2023-02-15T03:46:19.481Z,101987.03
2023-02-15T03:48:53.130Z,101994.97
2023-02-15T03:51:37.463Z,101984.47
2023-02-15T03:54:07.671Z,101985.38
2023-02-15T03:56:37.707Z,101986.28
2023-02-15T03:59:24.090Z,101987.19
2023-02-15T04:02:06.972Z,101994.94
2023-02-15T04:04:37.803Z,101996.75
2023-02-15T04:07:09.762Z,101994.19
2023-02-15T04:09:55.515Z,101996.88
2023-02-15T04:12:23.372Z,101984.69
2023-02-15T04:15:09.067Z,101987.91
2023-02-15T04:17:38.161Z,101987.78
2023-02-15T04:20:24.327Z,101994.94
2023-02-15T04:23:11.175Z,101989.34
2023-02-15T04:25:39.022Z,101994.94
2023-02-15T04:28:08.590Z,101994.94
2023-02-15T04:30:36.737Z,101989.69
2023-02-15T04:33:04.670Z,101987.69
2023-02-15T04:35:32.754Z,101985.16
2023-02-15T04:38:01.959Z,101985.94
2023-02-15T04:40:29.843Z,101979.78
2023-02-15T04:42:57.624Z,101977.19
2023-02-15T04:45:25.406Z,101977.09
2023-02-15T04:47:53.168Z,101980.75
2023-02-15T04:50:21.000Z,101977.38
2023-02-15T04:52:48.985Z,101974.78
2023-02-15T04:55:18.345Z,101974.00
2023-02-15T04:57:46.061Z,101979.16
2023-02-15T05:00:14.418Z,101978.28
2023-02-15T05:02:42.115Z,101979.16
2023-02-15T05:05:13.928Z,101971.25
2023-02-15T05:07:41.756Z,101978.22
2023-02-15T05:10:10.571Z,101977.44
2023-02-15T05:12:39.712Z,101973.72
2023-02-15T05:15:07.842Z,101971.09
2023-02-15T05:17:35.549Z,101975.47
2023-02-15T05:20:03.326Z,101977.91
2023-02-15T05:22:31.129Z,101971.66
2023-02-15T05:25:16.060Z,101970.72
2023-02-15T05:28:17.363Z,101971.75
2023-02-15T05:30:45.439Z,101963.28
2023-02-15T05:33:13.357Z,101963.03
2023-02-15T05:35:41.199Z,101960.44
2023-02-15T05:38:08.936Z,101964.69
2023-02-15T05:40:36.760Z,101964.53
2023-02-15T05:43:05.825Z,101964.47
2023-02-15T05:45:33.644Z,101963.63
2023-02-15T05:48:01.392Z,101961.91
2023-02-15T05:50:29.209Z,101960.97
2023-02-15T05:52:56.958Z,101972.78
2023-02-15T05:55:24.760Z,101969.72
2023-02-15T05:57:52.512Z,101971.53
2023-02-15T06:00:22.234Z,101978.53
2023-02-15T06:02:50.165Z,101982.16
2023-02-15T06:05:18.227Z,101981.31
2023-02-15T06:07:46.482Z,101983.78
2023-02-15T06:10:14.369Z,101987.28
2023-02-15T06:12:42.125Z,101982.13
2023-02-15T06:15:10.776Z,101990.06
2023-02-15T06:17:39.872Z,101986.41
2023-02-15T06:20:09.296Z,101998.81
2023-02-15T06:22:37.095Z,101991.56
2023-02-15T06:25:04.996Z,102004.81
2023-02-15T06:27:32.818Z,101999.72
2023-02-15T06:30:00.676Z,102005.97
2023-02-15T06:32:28.400Z,102008.66
2023-02-15T06:34:57.528Z,102009.03
2023-02-15T06:37:25.235Z,102011.78
2023-02-15T06:39:53.181Z,102011.75
2023-02-15T06:42:20.991Z,102010.94
2023-02-15T06:44:48.748Z,102019.06
2023-02-15T06:47:16.522Z,102016.47
2023-02-15T06:49:44.357Z,102023.50
2023-02-15T06:52:14.299Z,102020.06
2023-02-15T06:54:42.137Z,102013.06
2023-02-15T06:57:10.492Z,102025.38
2023-02-15T06:59:38.338Z,102026.22
2023-02-15T07:02:06.144Z,102024.34
2023-02-15T07:04:34.039Z,102033.16
2023-02-15T07:07:01.873Z,102030.59
2023-02-15T07:09:30.956Z,102038.56
2023-02-15T07:12:16.082Z,102032.50
2023-02-15T07:14:43.806Z,102035.28
2023-02-15T07:17:27.432Z,102039.66
2023-02-15T07:19:59.212Z,102036.06
2023-02-15T07:22:26.955Z,102041.22
2023-02-15T07:24:56.448Z,102030.69
2023-02-15T07:27:24.191Z,102044.63
2023-02-15T07:29:51.980Z,102040.25
2023-02-15T07:32:19.799Z,102042.81
2023-02-15T07:34:47.706Z,102052.44
2023-02-15T07:37:15.477Z,102053.25
2023-02-15T07:39:43.429Z,102050.59
2023-02-15T07:42:12.556Z,102058.53
2023-02-15T07:44:40.374Z,102066.59
2023-02-15T07:47:08.532Z,102077.28
2023-02-15T07:49:36.286Z,102069.56
2023-02-15T07:52:04.131Z,102074.88
2023-02-15T07:54:32.153Z,102075.91
2023-02-15T07:56:59.903Z,102082.03
2023-02-15T07:59:28.983Z,102080.25
2023-02-15T08:01:57.511Z,102081.13
2023-02-15T08:04:26.187Z,102086.38
2023-02-15T08:06:55.316Z,102081.91
2023-02-15T08:09:23.820Z,102080.06
2023-02-15T08:11:51.789Z,102081.75
2023-02-15T08:14:21.317Z,102084.31
2023-02-15T08:16:52.350Z,102082.59
2023-02-15T08:19:22.298Z,102077.38
2023-02-15T08:21:52.484Z,102081.75
2023-02-15T08:24:22.407Z,102084.31
2023-02-15T08:26:50.992Z,102081.63
2023-02-15T08:29:22.282Z,102081.56
2023-02-15T08:31:51.827Z,102078.88
2023-02-15T08:34:21.925Z,102079.00
2023-02-15T08:36:49.624Z,102080.72
2023-02-15T08:39:17.863Z,102092.19
2023-02-15T08:41:47.021Z,102088.66
2023-02-15T08:44:16.768Z,102082.31
2023-02-15T08:46:46.288Z,102082.94
2023-02-15T08:49:18.810Z,102079.69
2023-02-15T08:51:47.254Z,102090.03
2023-02-15T08:54:17.336Z,102088.94
2023-02-15T08:56:47.482Z,102089.66
2023-02-15T08:59:18.075Z,102094.22
2023-02-15T09:01:46.651Z,102091.34
2023-02-15T09:04:16.762Z,102094.97
2023-02-15T09:06:48.744Z,102101.91
2023-02-15T09:09:18.025Z,102088.53
2023-02-15T09:11:47.226Z,102094.56
2023-02-15T09:14:16.592Z,102096.47
2023-02-15T09:16:47.224Z,102100.63
2023-02-15T09:19:16.712Z,102095.19
2023-02-15T09:21:44.484Z,102097.81
2023-02-15T09:24:14.418Z,102091.03
2023-02-15T09:26:45.268Z,102101.50
2023-02-15T09:29:17.490Z,102098.00
2023-02-15T09:31:47.259Z,102092.59
2023-02-15T09:34:18.768Z,102095.88
2023-02-15T09:36:47.608Z,102099.31
2023-02-15T09:39:18.198Z,102101.63
2023-02-15T09:42:23.031Z,102098.78
2023-02-15T09:45:38.670Z,102103.63
2023-02-15T09:48:28.535Z,102113.63
2023-02-15T09:51:11.697Z,102115.16
2023-02-15T09:53:55.245Z,102114.63
2023-02-15T09:56:33.363Z,102121.88
2023-02-15T09:59:11.053Z,102131.88
2023-02-15T10:01:48.741Z,102131.91
2023-02-15T10:04:38.085Z,102134.97
2023-02-15T10:07:21.541Z,102140.81
2023-02-15T10:10:04.826Z,102139.00
2023-02-15T10:12:47.249Z,102138.25
2023-02-15T10:15:25.362Z,102141.16
2023-02-15T10:18:07.982Z,102142.66
2023-02-15T10:20:47.461Z,102144.44
2023-02-15T10:23:40.570Z,102147.75
2023-02-15T10:26:18.599Z,102143.63
2023-02-15T10:28:50.382Z,102140.00
2023-02-15T10:31:29.498Z,102135.72
2023-02-15T10:34:16.769Z,102140.63
2023-02-15T10:37:06.303Z,102146.13
2023-02-15T10:39:48.716Z,102129.50
2023-02-15T10:42:28.420Z,102137.75
2023-02-15T10:45:14.604Z,102142.38
2023-02-15T10:48:01.641Z,102135.38
2023-02-15T10:50:44.313Z,102130.09
2023-02-15T10:53:26.590Z,102135.69
2023-02-15T10:56:02.088Z,102133.47
2023-02-15T10:58:40.800Z,102136.41
2023-02-15T11:01:22.379Z,102135.09
2023-02-15T11:04:32.998Z,102127.72
2023-02-15T11:07:05.674Z,102124.56
2023-02-15T11:09:41.154Z,102130.84
2023-02-15T11:12:17.992Z,102134.00
2023-02-15T11:14:51.649Z,102124.75
2023-02-15T11:17:25.373Z,102117.09
2023-02-15T11:20:01.678Z,102117.03
2023-02-15T11:22:31.107Z,102119.84
2023-02-15T11:25:00.916Z,102111.25
2023-02-15T11:27:34.014Z,102112.44
2023-02-15T11:30:05.282Z,102108.44
2023-02-15T11:32:36.724Z,102104.56
2023-02-15T11:35:12.890Z,102114.56
2023-02-15T11:37:47.057Z,102112.00
2023-02-15T11:40:23.222Z,102105.69
2023-02-15T11:42:55.687Z,102112.44
2023-02-15T11:45:29.447Z,102107.25
2023-02-15T11:47:57.335Z,102099.09
2023-02-15T11:50:26.794Z,102097.81
2023-02-15T11:52:56.974Z,102095.28
2023-02-15T11:55:26.263Z,102093.97
2023-02-15T11:57:59.802Z,102082.91
2023-02-15T12:00:37.009Z,102078.44
2023-02-15T12:03:14.526Z,102074.13
2023-02-15T12:05:46.500Z,102065.81
2023-02-15T12:08:20.690Z,102077.66
2023-02-15T12:11:02.932Z,102069.88
2023-02-15T12:13:32.359Z,102074.72
2023-02-15T12:16:09.286Z,102067.56
2023-02-15T12:18:41.683Z,102069.66
2023-02-15T12:21:12.858Z,102064.88
2023-02-15T12:23:48.805Z,102065.34
2023-02-15T12:26:25.175Z,102065.06
2023-02-15T12:28:58.876Z,102071.25
2023-02-15T12:31:30.988Z,102072.25
2023-02-15T12:34:02.766Z,102066.94
2023-02-15T12:36:33.934Z,102061.00
2023-02-15T12:39:07.739Z,102062.50
2023-02-15T12:41:36.199Z,102060.75
2023-02-15T12:44:19.880Z,102067.75
2023-02-15T12:46:59.307Z,102061.13
2023-02-15T12:49:28.166Z,102055.69
2023-02-15T12:51:58.001Z,102061.34
2023-02-15T12:54:32.839Z,102057.03
2023-02-15T12:57:01.002Z,102061.19
2023-02-15T12:59:30.234Z,102055.94
2023-02-15T13:01:58.090Z,102048.09
2023-02-15T13:04:28.273Z,102051.47
2023-02-15T13:07:00.040Z,102049.47
2023-02-15T13:09:40.104Z,102047.59
2023-02-15T13:12:19.868Z,102045.47
2023-02-15T13:14:52.501Z,102052.94
2023-02-15T13:17:25.872Z,102036.25
2023-02-15T13:19:56.063Z,102036.66
2023-02-15T13:22:28.181Z,102033.53
2023-02-15T13:24:59.652Z,102042.22
2023-02-15T13:27:38.081Z,102035.44
2023-02-15T13:30:22.262Z,102042.16
2023-02-15T13:32:54.043Z,102037.56
2023-02-15T13:35:22.760Z,102038.09
2023-02-15T13:38:04.980Z,102029.34
2023-02-15T13:40:38.481Z,102030.50
2023-02-15T13:43:21.367Z,102016.78
2023-02-15T13:46:03.630Z,102012.84
2023-02-15T13:48:48.311Z,102016.94
2023-02-15T13:51:23.840Z,102014.53
2023-02-15T13:54:10.675Z,102009.91
2023-02-15T13:56:51.096Z,102013.00
2023-02-15T13:59:42.311Z,102019.63
2023-02-15T14:02:32.366Z,102001.59
2023-02-15T14:05:23.796Z,102007.03
2023-02-15T14:08:06.104Z,102007.94
2023-02-15T14:10:45.633Z,102010.97
2023-02-15T14:13:39.173Z,102007.41
2023-02-15T14:16:15.421Z,102013.69
2023-02-15T14:18:51.165Z,102010.53
2023-02-15T14:21:23.888Z,102007.34
2023-02-15T14:24:10.582Z,102008.28
2023-02-15T14:26:43.971Z,102001.66
2023-02-15T14:29:21.055Z,101999.34
2023-02-15T14:31:52.810Z,101992.78
2023-02-15T14:34:26.914Z,101997.41
2023-02-15T14:36:56.458Z,101989.00
2023-02-15T14:39:51.779Z,101996.53
2023-02-15T14:42:27.500Z,101998.53
2023-02-15T14:45:04.990Z,102000.91
2023-02-15T14:47:38.568Z,101996.28
2023-02-15T14:50:44.015Z,102004.13
2023-02-15T14:53:37.374Z,101989.75
2023-02-15T14:56:21.438Z,101990.00
2023-02-15T14:59:01.511Z,101982.50
2023-02-15T15:01:31.731Z,101988.94
2023-02-15T15:04:03.156Z,101991.63
2023-02-15T15:06:33.909Z,101988.53
2023-02-15T15:09:13.963Z,101984.84
2023-02-15T15:11:48.036Z,101991.09
2023-02-15T15:14:44.151Z,101986.63
2023-02-15T15:17:14.167Z,101985.06
2023-02-15T15:20:09.205Z,101987.25
2023-02-15T15:22:38.365Z,101979.09
2023-02-15T15:25:12.498Z,101974.28
2023-02-15T15:27:51.517Z,101979.94
2023-02-15T15:30:49.609Z,101977.63
2023-02-15T15:33:45.918Z,101981.00
2023-02-15T15:36:31.127Z,101978.53
2023-02-15T15:39:14.370Z,101979.66
2023-02-15T15:41:45.940Z,101977.38
2023-02-15T15:44:45.345Z,101979.19
2023-02-15T15:47:27.461Z,101975.13
2023-02-15T15:49:58.895Z,101970.66
2023-02-15T15:52:29.153Z,101969.44
2023-02-15T15:54:59.435Z,101970.91
2023-02-15T15:57:31.924Z,101972.81
2023-02-15T16:00:00.732Z,101969.25
2023-02-15T16:02:29.774Z,101965.25
2023-02-15T16:05:09.153Z,101973.09
2023-02-15T16:07:36.889Z,101968.09
2023-02-15T16:10:06.892Z,101969.16
2023-02-15T16:12:39.073Z,101972.88
2023-02-15T16:15:17.051Z,101966.81
2023-02-15T16:17:47.417Z,101967.63
2023-02-15T16:20:19.620Z,101973.34
2023-02-15T16:22:50.052Z,101967.63
2023-02-15T16:25:33.533Z,101967.28
2023-02-15T16:28:08.787Z,101963.81
2023-02-15T16:30:38.029Z,101964.66
2023-02-15T16:33:08.367Z,101973.13
2023-02-15T16:35:37.287Z,101967.34
2023-02-15T16:38:05.604Z,101972.16
2023-02-15T16:40:47.754Z,101972.41
2023-02-15T16:43:25.517Z,101972.50
2023-02-15T16:45:56.382Z,101983.72
2023-02-15T16:48:28.729Z,101985.44
2023-02-15T16:50:59.402Z,101992.31
2023-02-15T16:53:29.034Z,101986.69
2023-02-15T16:55:59.046Z,101990.63
2023-02-15T16:58:33.425Z,101991.81
2023-02-15T17:01:03.851Z,102000.81
2023-02-15T17:03:32.030Z,102003.50
2023-02-15T17:06:01.493Z,101999.22
2023-02-15T17:08:32.580Z,102010.56
2023-02-15T17:11:13.547Z,102008.88
2023-02-15T17:14:29.573Z,102006.88
2023-02-15T17:17:03.915Z,102002.94
2023-02-15T17:19:34.010Z,102007.22
2023-02-15T17:22:05.116Z,102004.16
2023-02-15T17:24:42.167Z,102001.81
2023-02-15T17:27:17.074Z,101995.63
2023-02-15T17:29:49.251Z,101999.84
2023-02-15T17:32:22.001Z,102009.66
2023-02-15T17:35:11.147Z,102005.06
2023-02-15T17:37:48.547Z,102009.16
2023-02-15T17:40:25.828Z,102015.53
2023-02-15T17:42:54.023Z,102022.41
2023-02-15T17:45:22.779Z,102025.25
2023-02-15T17:47:52.156Z,102032.22
2023-02-15T17:50:22.990Z,102035.06
2023-02-15T17:52:51.043Z,102032.47
2023-02-15T17:55:39.028Z,102029.84
2023-02-15T17:58:09.631Z,102023.53
2023-02-15T18:00:57.520Z,102022.97
2023-02-15T18:03:48.133Z,102029.38
2023-02-15T18:06:34.162Z,102020.13
2023-02-15T18:09:19.579Z,102034.22
2023-02-15T18:11:49.081Z,102033.44
2023-02-15T18:14:16.795Z,102029.34
2023-02-15T18:16:46.209Z,102029.56
2023-02-15T18:19:19.480Z,102031.78
2023-02-15T18:21:48.074Z,102032.59
2023-02-15T18:24:18.462Z,102025.88
2023-02-15T18:26:46.638Z,102030.44
2023-02-15T18:29:14.477Z,102033.59
2023-02-15T18:31:43.766Z,102045.97
2023-02-15T18:34:24.947Z,102043.88
2023-02-15T18:36:54.092Z,102046.50
2023-02-15T18:39:30.301Z,102042.78
2023-02-15T18:41:59.177Z,102056.03
2023-02-15T18:44:28.555Z,102047.63
2023-02-15T18:46:56.656Z,102047.50
2023-02-15T18:49:25.989Z,102056.69
2023-02-15T18:51:54.341Z,102061.63
2023-02-15T18:54:24.977Z,102051.78
2023-02-15T18:56:56.545Z,102063.88
2023-02-15T18:59:25.469Z,102072.44
2023-02-15T19:01:53.275Z,102076.13
2023-02-15T19:04:21.151Z,102068.88
2023-02-15T19:06:50.956Z,102066.41
2023-02-15T19:09:22.458Z,102063.41
2023-02-15T19:11:52.910Z,102062.69
2023-02-15T19:14:26.969Z,102067.22
2023-02-15T19:16:55.473Z,102065.59
2023-02-15T19:19:23.828Z,102066.16
2023-02-15T19:21:53.614Z,102056.28
2023-02-15T19:24:25.228Z,102061.22
2023-02-15T19:26:53.741Z,102060.53
2023-02-15T19:29:26.482Z,102067.09
2023-02-15T19:31:54.432Z,102064.25
2023-02-15T19:34:22.464Z,102059.50
2023-02-15T19:36:54.352Z,102055.91
2023-02-15T19:39:28.326Z,102060.72
2023-02-15T19:41:56.559Z,102063.09
2023-02-15T19:44:24.331Z,102061.34
2023-02-15T19:46:52.075Z,102059.13
2023-02-15T19:49:19.929Z,102065.34
2023-02-15T19:51:48.086Z,102052.78
2023-02-15T19:54:29.261Z,102056.56
2023-02-15T19:56:57.244Z,102066.44
2023-02-15T19:59:26.368Z,102061.41
2023-02-15T20:01:54.206Z,102062.22
2023-02-15T20:04:22.002Z,102064.25
2023-02-15T20:06:51.907Z,102075.06
2023-02-15T20:09:25.363Z,102075.91
2023-02-15T20:11:53.023Z,102080.56
2023-02-15T20:14:21.161Z,102081.63
2023-02-15T20:16:49.191Z,102088.94
2023-02-15T20:19:17.391Z,102092.94
2023-02-15T20:21:51.784Z,102100.88
2023-02-15T20:24:23.120Z,102099.94
2023-02-15T20:26:50.914Z,102096.63
2023-02-15T20:29:20.162Z,102090.66
2023-02-15T20:31:47.981Z,102092.50
2023-02-15T20:34:15.982Z,102084.06
2023-02-15T20:36:44.175Z,102088.44
2023-02-15T20:39:17.380Z,102096.50
2023-02-15T20:41:48.461Z,102085.78
2023-02-15T20:44:20.604Z,102096.50
2023-02-15T20:46:49.836Z,102093.09
2023-02-15T20:49:18.163Z,102090.50
2023-02-15T20:51:48.232Z,102092.31
2023-02-15T20:54:19.228Z,102101.22
2023-02-15T20:56:50.485Z,102102.22
2023-02-15T20:59:25.325Z,102107.56
2023-02-15T21:01:57.605Z,102109.38
2023-02-15T21:04:33.734Z,102103.44
2023-02-15T21:07:02.296Z,102100.03
2023-02-15T21:09:30.545Z,102097.47
2023-02-15T21:12:02.560Z,102110.13
2023-02-15T21:14:31.017Z,102105.59
2023-02-15T21:16:58.812Z,102110.03
2023-02-15T21:19:26.642Z,102106.44
2023-02-15T21:21:55.086Z,102107.38
2023-02-15T21:24:25.350Z,102108.63
2023-02-15T21:26:54.399Z,102107.19
2023-02-15T21:29:26.239Z,102102.06
2023-02-15T21:31:54.256Z,102105.75
2023-02-15T21:34:22.223Z,102116.47
2023-02-15T21:36:50.697Z,102105.97
2023-02-15T21:39:22.129Z,102113.25
2023-02-15T21:42:09.325Z,102100.69
2023-02-15T21:44:55.901Z,102091.28
2023-02-15T21:47:43.314Z,102091.16
2023-02-15T21:50:30.853Z,102089.41
2023-02-15T21:52:59.381Z,102086.91
2023-02-15T21:55:28.007Z,102089.75
2023-02-15T21:57:55.963Z,102079.44
2023-02-15T22:00:26.433Z,102079.59
2023-02-15T22:02:58.112Z,102076.16
2023-02-15T22:05:29.344Z,102074.09
2023-02-15T22:07:57.784Z,102080.59
2023-02-15T22:10:29.865Z,102079.78
2023-02-15T22:12:57.932Z,102083.44
2023-02-15T22:15:30.139Z,102077.31
2023-02-15T22:17:57.856Z,102078.25
2023-02-15T22:20:25.830Z,102079.25
2023-02-15T22:22:54.074Z,102075.75
2023-02-15T22:25:24.124Z,102082.81
2023-02-15T22:27:54.300Z,102077.16
2023-02-15T22:30:28.695Z,102077.75
2023-02-15T22:32:58.114Z,102083.84
2023-02-15T22:35:28.196Z,102082.28
2023-02-15T22:37:56.813Z,102086.69
2023-02-15T22:40:30.155Z,102091.69
2023-02-15T22:43:00.719Z,102086.25
2023-02-15T22:45:30.216Z,102081.88
2023-02-15T22:48:00.623Z,102086.34
2023-02-15T22:50:30.762Z,102080.63
2023-02-15T22:53:00.806Z,102076.22
2023-02-15T22:55:32.537Z,102084.25
2023-02-15T22:58:00.695Z,102079.84
2023-02-15T23:00:33.490Z,102080.41
2023-02-15T23:03:02.270Z,102074.91
2023-02-15T23:05:32.000Z,102072.47
2023-02-15T23:07:59.839Z,102091.38
2023-02-15T23:10:27.931Z,102083.84
2023-02-15T23:13:14.676Z,102085.97
2023-02-15T23:15:45.931Z,102088.75
2023-02-15T23:18:19.162Z,102080.25
2023-02-15T23:20:48.241Z,102079.06
2023-02-15T23:23:16.718Z,102075.84
2023-02-15T23:25:44.551Z,102079.34
2023-02-15T23:28:20.728Z,102076.59
2023-02-15T23:30:50.432Z,102079.16
2023-02-15T23:33:21.203Z,102075.94
2023-02-15T23:35:50.075Z,102072.94
2023-02-15T23:38:23.381Z,102063.69
2023-02-15T23:41:12.857Z,102070.41
2023-02-15T23:43:44.102Z,102075.72
2023-02-15T23:46:23.023Z,102076.28
2023-02-15T23:48:50.731Z,102072.06
2023-02-15T23:51:18.786Z,102073.91
2023-02-15T23:53:46.652Z,102074.09
2023-02-15T23:56:15.072Z,102078.38
2023-02-15T23:58:44.937Z,102074.09
